sensor_id;sensor_type;location;lat;lon;timestamp;temperature;humidity
19292;DHT22;9779;51.756;7.450;2023-11-21T00:02:20;7.70;99.90
19292;DHT22;9779;51.756;7.450;2023-11-21T00:04:46;7.70;99.90
19292;DHT22;9779;51.756;7.450;2023-11-21T00:07:12;7.70;99.90
19292;DHT22;9779;51.756;7.450;2023-11-21T00:09:38;7.70;99.90
19292;DHT22;9779;51.756;7.450;2023-11-21T00:12:04;7.70;99.90
19292;DHT22;9779;51.756;7.450;2023-11-21T00:14:30;7.70;99.90
19292;DHT22;9779;51.756;7.450;2023-11-21T00:16:55;7.80;99.90
19292;DHT22;9779;51.756;7.450;2023-11-21T00:19:21;7.80;99.90
19292;DHT22;9779;51.756;7.450;2023-11-21T00:21:46;7.80;99.90
19292;DHT22;9779;51.756;7.450;2023-11-21T00:24:12;7.80;99.90
19292;DHT22;9779;51.756;7.450;2023-11-21T00:26:39;7.80;99.90
19292;DHT22;9779;51.756;7.450;2023-11-21T00:29:05;7.80;99.90
19292;DHT22;9779;51.756;7.450;2023-11-21T00:31:37;7.70;99.90
19292;DHT22;9779;51.756;7.450;2023-11-21T00:34:04;7.70;99.90
19292;DHT22;9779;51.756;7.450;2023-11-21T00:36:31;7.70;99.90
19292;DHT22;9779;51.756;7.450;2023-11-21T00:38:57;7.70;99.90
19292;DHT22;9779;51.756;7.450;2023-11-21T00:41:23;7.70;99.90
19292;DHT22;9779;51.756;7.450;2023-11-21T00:43:48;7.70;99.90
19292;DHT22;9779;51.756;7.450;2023-11-21T00:46:14;7.80;99.90
19292;DHT22;9779;51.756;7.450;2023-11-21T00:48:40;7.70;99.90
19292;DHT22;9779;51.756;7.450;2023-11-21T00:51:06;7.70;99.90
19292;DHT22;9779;51.756;7.450;2023-11-21T00:53:32;7.70;99.90
19292;DHT22;9779;51.756;7.450;2023-11-21T00:55:57;7.80;99.90
19292;DHT22;9779;51.756;7.450;2023-11-21T00:58:26;7.80;99.90
19292;DHT22;9779;51.756;7.450;2023-11-21T01:00:52;7.80;99.90
19292;DHT22;9779;51.756;7.450;2023-11-21T01:03:18;7.80;99.90
19292;DHT22;9779;51.756;7.450;2023-11-21T01:05:44;7.80;99.90
19292;DHT22;9779;51.756;7.450;2023-11-21T01:08:10;7.80;99.90
19292;DHT22;9779;51.756;7.450;2023-11-21T01:10:36;7.90;99.90
19292;DHT22;9779;51.756;7.450;2023-11-21T01:13:02;7.90;99.90
19292;DHT22;9779;51.756;7.450;2023-11-21T01:15:30;7.90;99.90
19292;DHT22;9779;51.756;7.450;2023-11-21T01:17:56;7.80;99.90
19292;DHT22;9779;51.756;7.450;2023-11-21T01:20:21;7.80;99.90
19292;DHT22;9779;51.756;7.450;2023-11-21T01:22:47;7.90;99.90
19292;DHT22;9779;51.756;7.450;2023-11-21T01:25:14;7.80;99.90
19292;DHT22;9779;51.756;7.450;2023-11-21T01:27:42;7.90;99.90
19292;DHT22;9779;51.756;7.450;2023-11-21T01:30:08;7.90;99.90
19292;DHT22;9779;51.756;7.450;2023-11-21T01:32:36;7.90;99.90
19292;DHT22;9779;51.756;7.450;2023-11-21T01:35:02;7.90;99.90
19292;DHT22;9779;51.756;7.450;2023-11-21T01:37:31;7.90;99.90
19292;DHT22;9779;51.756;7.450;2023-11-21T01:39:56;7.90;99.90
19292;DHT22;9779;51.756;7.450;2023-11-21T01:42:22;7.90;99.90
19292;DHT22;9779;51.756;7.450;2023-11-21T01:44:48;7.90;99.90
19292;DHT22;9779;51.756;7.450;2023-11-21T01:47:14;7.90;99.90
19292;DHT22;9779;51.756;7.450;2023-11-21T01:49:43;7.90;99.90
19292;DHT22;9779;51.756;7.450;2023-11-21T01:52:09;7.90;99.90
19292;DHT22;9779;51.756;7.450;2023-11-21T01:54:37;7.90;99.90
19292;DHT22;9779;51.756;7.450;2023-11-21T01:57:04;8.00;99.90
19292;DHT22;9779;51.756;7.450;2023-11-21T01:59:35;7.90;99.90
19292;DHT22;9779;51.756;7.450;2023-11-21T02:02:02;7.90;99.90
19292;DHT22;9779;51.756;7.450;2023-11-21T02:04:30;7.90;99.90
19292;DHT22;9779;51.756;7.450;2023-11-21T02:06:57;7.90;99.90
19292;DHT22;9779;51.756;7.450;2023-11-21T02:09:27;7.90;99.90
19292;DHT22;9779;51.756;7.450;2023-11-21T02:11:53;7.90;99.90
19292;DHT22;9779;51.756;7.450;2023-11-21T02:14:20;7.90;99.90
19292;DHT22;9779;51.756;7.450;2023-11-21T02:16:51;7.90;99.90
19292;DHT22;9779;51.756;7.450;2023-11-21T02:19:21;7.90;99.90
19292;DHT22;9779;51.756;7.450;2023-11-21T02:21:52;7.90;99.90
19292;DHT22;9779;51.756;7.450;2023-11-21T02:24:22;7.90;99.90
19292;DHT22;9779;51.756;7.450;2023-11-21T02:26:48;7.90;99.90
19292;DHT22;9779;51.756;7.450;2023-11-21T02:29:17;7.80;99.90
19292;DHT22;9779;51.756;7.450;2023-11-21T02:31:44;7.90;99.90
19292;DHT22;9779;51.756;7.450;2023-11-21T02:34:17;7.80;99.90
19292;DHT22;9779;51.756;7.450;2023-11-21T02:36:44;7.80;99.90
19292;DHT22;9779;51.756;7.450;2023-11-21T02:39:13;7.80;99.90
19292;DHT22;9779;51.756;7.450;2023-11-21T02:41:39;7.70;99.90
19292;DHT22;9779;51.756;7.450;2023-11-21T02:44:06;7.70;99.90
19292;DHT22;9779;51.756;7.450;2023-11-21T02:46:33;7.70;99.90
19292;DHT22;9779;51.756;7.450;2023-11-21T02:49:02;7.60;99.90
19292;DHT22;9779;51.756;7.450;2023-11-21T02:51:29;7.60;99.90
19292;DHT22;9779;51.756;7.450;2023-11-21T02:53:54;7.60;99.90
19292;DHT22;9779;51.756;7.450;2023-11-21T02:56:24;7.50;99.90
19292;DHT22;9779;51.756;7.450;2023-11-21T02:58:50;7.60;99.90
19292;DHT22;9779;51.756;7.450;2023-11-21T03:01:16;7.50;99.90
19292;DHT22;9779;51.756;7.450;2023-11-21T03:03:42;7.50;99.90
19292;DHT22;9779;51.756;7.450;2023-11-21T03:06:08;7.50;99.90
19292;DHT22;9779;51.756;7.450;2023-11-21T03:08:34;7.50;99.90
19292;DHT22;9779;51.756;7.450;2023-11-21T03:11:00;7.50;99.90
19292;DHT22;9779;51.756;7.450;2023-11-21T03:13:25;7.50;99.90
19292;DHT22;9779;51.756;7.450;2023-11-21T03:15:51;7.50;99.90
19292;DHT22;9779;51.756;7.450;2023-11-21T03:18:17;7.50;99.90
19292;DHT22;9779;51.756;7.450;2023-11-21T03:20:43;7.50;99.90
19292;DHT22;9779;51.756;7.450;2023-11-21T03:23:12;7.50;99.90
19292;DHT22;9779;51.756;7.450;2023-11-21T03:25:37;7.50;99.90
19292;DHT22;9779;51.756;7.450;2023-11-21T03:28:03;7.50;99.90
19292;DHT22;9779;51.756;7.450;2023-11-21T03:30:29;7.50;99.90
19292;DHT22;9779;51.756;7.450;2023-11-21T03:32:54;7.50;99.90
19292;DHT22;9779;51.756;7.450;2023-11-21T03:35:20;7.50;99.90
19292;DHT22;9779;51.756;7.450;2023-11-21T03:37:46;7.50;99.90
19292;DHT22;9779;51.756;7.450;2023-11-21T03:40:12;7.50;99.90
19292;DHT22;9779;51.756;7.450;2023-11-21T03:42:39;7.50;99.90
19292;DHT22;9779;51.756;7.450;2023-11-21T03:45:06;7.50;99.90
19292;DHT22;9779;51.756;7.450;2023-11-21T03:47:32;7.50;99.90
19292;DHT22;9779;51.756;7.450;2023-11-21T03:49:57;7.50;99.90
19292;DHT22;9779;51.756;7.450;2023-11-21T03:52:24;7.50;99.90
19292;DHT22;9779;51.756;7.450;2023-11-21T03:54:50;7.50;99.90
19292;DHT22;9779;51.756;7.450;2023-11-21T03:57:15;7.50;99.90
19292;DHT22;9779;51.756;7.450;2023-11-21T03:59:42;7.50;99.90
19292;DHT22;9779;51.756;7.450;2023-11-21T04:02:08;7.50;99.90
19292;DHT22;9779;51.756;7.450;2023-11-21T04:04:34;7.50;99.90
19292;DHT22;9779;51.756;7.450;2023-11-21T04:07:00;7.50;99.90
19292;DHT22;9779;51.756;7.450;2023-11-21T04:09:26;7.50;99.90
19292;DHT22;9779;51.756;7.450;2023-11-21T04:11:52;7.50;99.90
19292;DHT22;9779;51.756;7.450;2023-11-21T04:14:18;7.60;99.90
19292;DHT22;9779;51.756;7.450;2023-11-21T04:16:44;7.60;99.90
19292;DHT22;9779;51.756;7.450;2023-11-21T04:19:10;7.60;99.90
19292;DHT22;9779;51.756;7.450;2023-11-21T04:21:36;7.60;99.90
19292;DHT22;9779;51.756;7.450;2023-11-21T04:24:02;7.60;99.90
19292;DHT22;9779;51.756;7.450;2023-11-21T04:26:28;7.60;99.90
19292;DHT22;9779;51.756;7.450;2023-11-21T04:28:54;7.60;99.90
19292;DHT22;9779;51.756;7.450;2023-11-21T04:31:19;7.60;99.90
19292;DHT22;9779;51.756;7.450;2023-11-21T04:33:45;7.60;99.90
19292;DHT22;9779;51.756;7.450;2023-11-21T04:36:10;7.60;99.90
19292;DHT22;9779;51.756;7.450;2023-11-21T04:38:36;7.60;99.90
19292;DHT22;9779;51.756;7.450;2023-11-21T04:41:02;7.60;99.90
19292;DHT22;9779;51.756;7.450;2023-11-21T04:43:27;7.60;99.90
19292;DHT22;9779;51.756;7.450;2023-11-21T04:45:54;7.60;99.90
19292;DHT22;9779;51.756;7.450;2023-11-21T04:48:20;7.60;99.90
19292;DHT22;9779;51.756;7.450;2023-11-21T04:50:45;7.60;99.90
19292;DHT22;9779;51.756;7.450;2023-11-21T04:53:11;7.60;99.90
19292;DHT22;9779;51.756;7.450;2023-11-21T04:55:43;7.60;99.90
19292;DHT22;9779;51.756;7.450;2023-11-21T04:58:09;7.60;99.90
19292;DHT22;9779;51.756;7.450;2023-11-21T05:00:35;7.60;99.90
19292;DHT22;9779;51.756;7.450;2023-11-21T05:03:02;7.60;99.90
19292;DHT22;9779;51.756;7.450;2023-11-21T05:05:28;7.60;99.90
19292;DHT22;9779;51.756;7.450;2023-11-21T05:07:55;7.60;99.90
19292;DHT22;9779;51.756;7.450;2023-11-21T05:10:20;7.60;99.90
19292;DHT22;9779;51.756;7.450;2023-11-21T05:12:48;7.70;99.90
19292;DHT22;9779;51.756;7.450;2023-11-21T05:15:16;7.70;99.90
19292;DHT22;9779;51.756;7.450;2023-11-21T05:17:43;7.70;99.90
19292;DHT22;9779;51.756;7.450;2023-11-21T05:20:12;7.70;99.90
19292;DHT22;9779;51.756;7.450;2023-11-21T05:22:39;7.60;99.90
19292;DHT22;9779;51.756;7.450;2023-11-21T05:25:06;7.70;99.90
19292;DHT22;9779;51.756;7.450;2023-11-21T05:27:33;7.70;99.90
19292;DHT22;9779;51.756;7.450;2023-11-21T05:30:00;7.70;99.90
19292;DHT22;9779;51.756;7.450;2023-11-21T05:32:26;7.70;99.90
19292;DHT22;9779;51.756;7.450;2023-11-21T05:34:52;7.70;99.90
19292;DHT22;9779;51.756;7.450;2023-11-21T05:37:18;7.70;99.90
19292;DHT22;9779;51.756;7.450;2023-11-21T05:39:43;7.70;99.90
19292;DHT22;9779;51.756;7.450;2023-11-21T05:42:09;7.70;99.90
19292;DHT22;9779;51.756;7.450;2023-11-21T05:44:36;7.70;99.90
19292;DHT22;9779;51.756;7.450;2023-11-21T05:47:02;7.70;99.90
19292;DHT22;9779;51.756;7.450;2023-11-21T05:49:29;7.70;99.90
19292;DHT22;9779;51.756;7.450;2023-11-21T05:51:55;7.70;99.90
19292;DHT22;9779;51.756;7.450;2023-11-21T05:54:21;7.70;99.90
19292;DHT22;9779;51.756;7.450;2023-11-21T05:56:49;7.80;99.90
19292;DHT22;9779;51.756;7.450;2023-11-21T05:59:15;7.80;99.90
19292;DHT22;9779;51.756;7.450;2023-11-21T06:01:40;7.80;99.90
19292;DHT22;9779;51.756;7.450;2023-11-21T06:04:06;7.80;99.90
19292;DHT22;9779;51.756;7.450;2023-11-21T06:06:33;7.80;99.90
19292;DHT22;9779;51.756;7.450;2023-11-21T06:08:59;7.70;99.90
19292;DHT22;9779;51.756;7.450;2023-11-21T06:11:25;7.70;99.90
19292;DHT22;9779;51.756;7.450;2023-11-21T06:13:51;7.70;99.90
19292;DHT22;9779;51.756;7.450;2023-11-21T06:16:18;7.70;99.90
19292;DHT22;9779;51.756;7.450;2023-11-21T06:18:46;7.70;99.90
19292;DHT22;9779;51.756;7.450;2023-11-21T06:21:11;7.80;99.90
19292;DHT22;9779;51.756;7.450;2023-11-21T06:23:37;7.80;99.90
19292;DHT22;9779;51.756;7.450;2023-11-21T06:26:03;7.80;99.90
19292;DHT22;9779;51.756;7.450;2023-11-21T06:28:30;7.80;99.90
19292;DHT22;9779;51.756;7.450;2023-11-21T06:30:56;7.80;99.90
19292;DHT22;9779;51.756;7.450;2023-11-21T06:33:23;7.80;99.90
19292;DHT22;9779;51.756;7.450;2023-11-21T06:35:52;7.80;99.90
19292;DHT22;9779;51.756;7.450;2023-11-21T06:38:18;7.80;99.90
19292;DHT22;9779;51.756;7.450;2023-11-21T06:40:45;7.80;99.90
19292;DHT22;9779;51.756;7.450;2023-11-21T06:43:11;7.80;99.90
19292;DHT22;9779;51.756;7.450;2023-11-21T06:45:36;7.90;99.90
19292;DHT22;9779;51.756;7.450;2023-11-21T06:48:02;7.80;99.90
19292;DHT22;9779;51.756;7.450;2023-11-21T06:50:28;7.80;99.90
19292;DHT22;9779;51.756;7.450;2023-11-21T06:52:53;7.90;99.90
19292;DHT22;9779;51.756;7.450;2023-11-21T06:55:19;7.80;99.90
19292;DHT22;9779;51.756;7.450;2023-11-21T06:57:44;7.80;99.90
19292;DHT22;9779;51.756;7.450;2023-11-21T07:00:10;7.80;99.90
19292;DHT22;9779;51.756;7.450;2023-11-21T07:02:37;7.80;99.90
19292;DHT22;9779;51.756;7.450;2023-11-21T07:05:02;7.90;99.90
19292;DHT22;9779;51.756;7.450;2023-11-21T07:07:28;7.90;99.90
19292;DHT22;9779;51.756;7.450;2023-11-21T07:09:54;7.80;99.90
19292;DHT22;9779;51.756;7.450;2023-11-21T07:12:20;7.80;99.90
19292;DHT22;9779;51.756;7.450;2023-11-21T07:14:49;7.80;99.90
19292;DHT22;9779;51.756;7.450;2023-11-21T07:17:14;7.80;99.90
19292;DHT22;9779;51.756;7.450;2023-11-21T07:19:40;7.70;99.90
19292;DHT22;9779;51.756;7.450;2023-11-21T07:22:06;7.80;99.90
19292;DHT22;9779;51.756;7.450;2023-11-21T07:24:34;7.80;99.90
19292;DHT22;9779;51.756;7.450;2023-11-21T07:26:59;7.80;99.90
19292;DHT22;9779;51.756;7.450;2023-11-21T07:29:26;7.80;99.90
19292;DHT22;9779;51.756;7.450;2023-11-21T07:31:55;7.80;99.90
19292;DHT22;9779;51.756;7.450;2023-11-21T07:34:21;7.80;99.90
19292;DHT22;9779;51.756;7.450;2023-11-21T07:36:47;7.80;99.90
19292;DHT22;9779;51.756;7.450;2023-11-21T07:39:12;7.80;99.90
19292;DHT22;9779;51.756;7.450;2023-11-21T07:41:41;7.80;99.90
19292;DHT22;9779;51.756;7.450;2023-11-21T07:44:10;7.90;99.90
19292;DHT22;9779;51.756;7.450;2023-11-21T07:46:36;7.90;99.90
19292;DHT22;9779;51.756;7.450;2023-11-21T07:49:01;7.90;99.90
19292;DHT22;9779;51.756;7.450;2023-11-21T07:51:27;7.90;99.90
19292;DHT22;9779;51.756;7.450;2023-11-21T07:53:52;7.90;99.90
19292;DHT22;9779;51.756;7.450;2023-11-21T07:56:18;7.90;99.90
19292;DHT22;9779;51.756;7.450;2023-11-21T07:58:44;8.00;99.90
19292;DHT22;9779;51.756;7.450;2023-11-21T08:01:10;8.00;99.90
19292;DHT22;9779;51.756;7.450;2023-11-21T08:03:35;8.00;99.90
19292;DHT22;9779;51.756;7.450;2023-11-21T08:06:01;8.00;99.90
19292;DHT22;9779;51.756;7.450;2023-11-21T08:08:28;8.00;99.90
19292;DHT22;9779;51.756;7.450;2023-11-21T08:10:54;8.00;99.90
19292;DHT22;9779;51.756;7.450;2023-11-21T08:13:27;8.00;99.90
19292;DHT22;9779;51.756;7.450;2023-11-21T08:15:57;8.00;99.90
19292;DHT22;9779;51.756;7.450;2023-11-21T08:18:26;8.00;99.90
19292;DHT22;9779;51.756;7.450;2023-11-21T08:20:52;8.00;99.90
19292;DHT22;9779;51.756;7.450;2023-11-21T08:23:20;8.00;99.90
19292;DHT22;9779;51.756;7.450;2023-11-21T08:25:51;8.00;99.90
19292;DHT22;9779;51.756;7.450;2023-11-21T08:28:16;8.10;99.90
19292;DHT22;9779;51.756;7.450;2023-11-21T08:30:42;8.10;99.90
19292;DHT22;9779;51.756;7.450;2023-11-21T08:33:08;8.10;99.90
19292;DHT22;9779;51.756;7.450;2023-11-21T08:35:37;8.10;99.90
19292;DHT22;9779;51.756;7.450;2023-11-21T08:38:03;8.10;99.90
19292;DHT22;9779;51.756;7.450;2023-11-21T08:40:29;8.10;99.90
19292;DHT22;9779;51.756;7.450;2023-11-21T08:42:55;8.10;99.90
19292;DHT22;9779;51.756;7.450;2023-11-21T08:45:25;8.10;99.90
19292;DHT22;9779;51.756;7.450;2023-11-21T08:47:51;8.10;99.90
19292;DHT22;9779;51.756;7.450;2023-11-21T08:50:17;8.10;99.90
19292;DHT22;9779;51.756;7.450;2023-11-21T08:52:44;8.10;99.90
19292;DHT22;9779;51.756;7.450;2023-11-21T08:55:11;8.10;99.90
19292;DHT22;9779;51.756;7.450;2023-11-21T08:57:41;8.10;99.90
19292;DHT22;9779;51.756;7.450;2023-11-21T09:00:09;8.10;99.90
19292;DHT22;9779;51.756;7.450;2023-11-21T09:02:39;8.10;99.90
19292;DHT22;9779;51.756;7.450;2023-11-21T09:05:08;8.20;99.90
19292;DHT22;9779;51.756;7.450;2023-11-21T09:07:35;8.20;99.90
19292;DHT22;9779;51.756;7.450;2023-11-21T09:10:01;8.20;99.90
19292;DHT22;9779;51.756;7.450;2023-11-21T09:12:27;8.20;99.90
19292;DHT22;9779;51.756;7.450;2023-11-21T09:14:52;8.20;99.90
19292;DHT22;9779;51.756;7.450;2023-11-21T09:17:18;8.20;99.90
19292;DHT22;9779;51.756;7.450;2023-11-21T09:19:44;8.30;99.90
19292;DHT22;9779;51.756;7.450;2023-11-21T09:22:17;8.30;99.90
19292;DHT22;9779;51.756;7.450;2023-11-21T09:24:43;8.30;99.90
19292;DHT22;9779;51.756;7.450;2023-11-21T09:27:09;8.30;99.90
19292;DHT22;9779;51.756;7.450;2023-11-21T09:29:35;8.40;99.90
19292;DHT22;9779;51.756;7.450;2023-11-21T09:32:01;8.40;99.90
19292;DHT22;9779;51.756;7.450;2023-11-21T09:34:27;8.40;99.90
19292;DHT22;9779;51.756;7.450;2023-11-21T09:36:53;8.50;99.90
19292;DHT22;9779;51.756;7.450;2023-11-21T09:39:19;8.50;99.90
19292;DHT22;9779;51.756;7.450;2023-11-21T09:44:18;8.50;99.90
19292;DHT22;9779;51.756;7.450;2023-11-21T09:46:48;8.50;99.90
19292;DHT22;9779;51.756;7.450;2023-11-21T09:49:18;8.50;99.90
19292;DHT22;9779;51.756;7.450;2023-11-21T09:51:47;8.60;99.90
19292;DHT22;9779;51.756;7.450;2023-11-21T09:54:14;8.60;99.90
19292;DHT22;9779;51.756;7.450;2023-11-21T09:56:41;8.60;99.90
19292;DHT22;9779;51.756;7.450;2023-11-21T09:59:13;8.60;99.90
19292;DHT22;9779;51.756;7.450;2023-11-21T10:01:38;8.60;99.90
19292;DHT22;9779;51.756;7.450;2023-11-21T10:04:06;8.60;99.90
19292;DHT22;9779;51.756;7.450;2023-11-21T10:06:40;8.60;99.90
19292;DHT22;9779;51.756;7.450;2023-11-21T10:09:10;8.60;99.90
19292;DHT22;9779;51.756;7.450;2023-11-21T10:11:41;8.60;99.90
19292;DHT22;9779;51.756;7.450;2023-11-21T10:14:13;8.70;99.90
19292;DHT22;9779;51.756;7.450;2023-11-21T10:16:41;8.60;99.90
19292;DHT22;9779;51.756;7.450;2023-11-21T10:19:10;8.60;99.90
19292;DHT22;9779;51.756;7.450;2023-11-21T10:21:37;8.60;99.90
19292;DHT22;9779;51.756;7.450;2023-11-21T10:24:03;8.60;99.90
19292;DHT22;9779;51.756;7.450;2023-11-21T10:26:29;8.60;99.90
19292;DHT22;9779;51.756;7.450;2023-11-21T10:28:58;8.60;99.90
19292;DHT22;9779;51.756;7.450;2023-11-21T10:31:29;8.70;99.90
19292;DHT22;9779;51.756;7.450;2023-11-21T10:34:19;8.70;99.90
19292;DHT22;9779;51.756;7.450;2023-11-21T10:36:45;8.70;99.90
19292;DHT22;9779;51.756;7.450;2023-11-21T10:39:18;8.70;99.90
19292;DHT22;9779;51.756;7.450;2023-11-21T10:41:48;9.00;99.90
19292;DHT22;9779;51.756;7.450;2023-11-21T10:44:17;9.20;99.90
19292;DHT22;9779;51.756;7.450;2023-11-21T10:46:56;9.30;99.90
19292;DHT22;9779;51.756;7.450;2023-11-21T10:49:27;9.40;99.90
19292;DHT22;9779;51.756;7.450;2023-11-21T10:51:54;9.40;99.90
19292;DHT22;9779;51.756;7.450;2023-11-21T10:54:25;9.40;99.90
19292;DHT22;9779;51.756;7.450;2023-11-21T10:56:57;9.20;99.90
19292;DHT22;9779;51.756;7.450;2023-11-21T10:59:25;9.10;99.90
19292;DHT22;9779;51.756;7.450;2023-11-21T11:01:54;9.30;99.90
19292;DHT22;9779;51.756;7.450;2023-11-21T11:04:22;9.20;99.90
19292;DHT22;9779;51.756;7.450;2023-11-21T11:07:02;9.10;99.90
19292;DHT22;9779;51.756;7.450;2023-11-21T11:09:30;9.40;99.90
19292;DHT22;9779;51.756;7.450;2023-11-21T11:11:59;9.30;99.90
19292;DHT22;9779;51.756;7.450;2023-11-21T11:14:25;9.20;99.90
19292;DHT22;9779;51.756;7.450;2023-11-21T11:16:54;9.20;99.90
19292;DHT22;9779;51.756;7.450;2023-11-21T11:19:21;9.30;99.90
19292;DHT22;9779;51.756;7.450;2023-11-21T11:24:42;9.20;99.90
19292;DHT22;9779;51.756;7.450;2023-11-21T11:35:29;9.50;99.90
19292;DHT22;9779;51.756;7.450;2023-11-21T11:37:59;9.40;99.90
19292;DHT22;9779;51.756;7.450;2023-11-21T11:40:38;9.40;99.90
19292;DHT22;9779;51.756;7.450;2023-11-21T11:43:06;9.40;99.90
19292;DHT22;9779;51.756;7.450;2023-11-21T11:45:34;9.40;99.90
19292;DHT22;9779;51.756;7.450;2023-11-21T11:48:01;9.30;99.90
19292;DHT22;9779;51.756;7.450;2023-11-21T11:50:29;9.40;99.90
19292;DHT22;9779;51.756;7.450;2023-11-21T11:52:57;9.40;99.90
19292;DHT22;9779;51.756;7.450;2023-11-21T11:55:37;9.30;99.90
19292;DHT22;9779;51.756;7.450;2023-11-21T11:58:06;9.30;99.90
19292;DHT22;9779;51.756;7.450;2023-11-21T12:03:00;9.30;99.90
19292;DHT22;9779;51.756;7.450;2023-11-21T12:05:29;9.30;99.90
19292;DHT22;9779;51.756;7.450;2023-11-21T12:08:00;9.30;99.90
19292;DHT22;9779;51.756;7.450;2023-11-21T12:10:37;9.30;99.90
19292;DHT22;9779;51.756;7.450;2023-11-21T12:13:09;9.30;99.90
19292;DHT22;9779;51.756;7.450;2023-11-21T12:15:35;9.30;99.90
19292;DHT22;9779;51.756;7.450;2023-11-21T12:18:01;9.30;99.90
19292;DHT22;9779;51.756;7.450;2023-11-21T12:20:28;9.30;99.90
19292;DHT22;9779;51.756;7.450;2023-11-21T12:22:58;9.30;99.90
19292;DHT22;9779;51.756;7.450;2023-11-21T12:25:29;9.30;99.90
19292;DHT22;9779;51.756;7.450;2023-11-21T12:27:58;9.30;99.90
19292;DHT22;9779;51.756;7.450;2023-11-21T12:30:28;9.30;99.90
19292;DHT22;9779;51.756;7.450;2023-11-21T12:32:56;9.30;99.90
19292;DHT22;9779;51.756;7.450;2023-11-21T12:35:25;9.30;99.90
19292;DHT22;9779;51.756;7.450;2023-11-21T12:37:52;9.30;99.90
19292;DHT22;9779;51.756;7.450;2023-11-21T12:40:18;9.30;99.90
19292;DHT22;9779;51.756;7.450;2023-11-21T12:42:48;9.20;99.90
19292;DHT22;9779;51.756;7.450;2023-11-21T12:47:44;9.20;99.90
19292;DHT22;9779;51.756;7.450;2023-11-21T12:50:10;9.20;99.90
19292;DHT22;9779;51.756;7.450;2023-11-21T12:52:46;9.10;99.90
19292;DHT22;9779;51.756;7.450;2023-11-21T12:55:18;9.20;99.90
19292;DHT22;9779;51.756;7.450;2023-11-21T12:57:48;9.10;99.90
19292;DHT22;9779;51.756;7.450;2023-11-21T13:00:16;9.10;99.90
19292;DHT22;9779;51.756;7.450;2023-11-21T13:02:53;9.10;99.90
19292;DHT22;9779;51.756;7.450;2023-11-21T13:05:36;9.10;99.90
19292;DHT22;9779;51.756;7.450;2023-11-21T13:08:05;9.40;99.90
19292;DHT22;9779;51.756;7.450;2023-11-21T13:10:34;9.80;99.90
19292;DHT22;9779;51.756;7.450;2023-11-21T13:13:03;10.00;99.90
19292;DHT22;9779;51.756;7.450;2023-11-21T13:15:31;9.80;99.90
19292;DHT22;9779;51.756;7.450;2023-11-21T13:17:58;9.60;99.90
19292;DHT22;9779;51.756;7.450;2023-11-21T13:20:27;9.50;99.90
19292;DHT22;9779;51.756;7.450;2023-11-21T13:22:54;9.30;99.90
19292;DHT22;9779;51.756;7.450;2023-11-21T13:25:25;9.30;99.90
19292;DHT22;9779;51.756;7.450;2023-11-21T13:27:53;9.20;99.90
19292;DHT22;9779;51.756;7.450;2023-11-21T13:30:19;9.20;99.90
19292;DHT22;9779;51.756;7.450;2023-11-21T13:32:51;9.20;99.90
19292;DHT22;9779;51.756;7.450;2023-11-21T13:35:18;9.20;99.90
19292;DHT22;9779;51.756;7.450;2023-11-21T13:37:51;9.30;99.90
19292;DHT22;9779;51.756;7.450;2023-11-21T13:40:22;9.30;99.90
19292;DHT22;9779;51.756;7.450;2023-11-21T13:42:53;9.30;99.90
19292;DHT22;9779;51.756;7.450;2023-11-21T13:45:22;9.40;99.90
19292;DHT22;9779;51.756;7.450;2023-11-21T13:47:52;9.30;99.90
19292;DHT22;9779;51.756;7.450;2023-11-21T13:50:20;9.30;99.90
19292;DHT22;9779;51.756;7.450;2023-11-21T13:52:50;9.30;99.90
19292;DHT22;9779;51.756;7.450;2023-11-21T13:55:19;9.30;99.90
19292;DHT22;9779;51.756;7.450;2023-11-21T13:57:47;9.20;99.90
19292;DHT22;9779;51.756;7.450;2023-11-21T14:00:18;9.20;99.90
19292;DHT22;9779;51.756;7.450;2023-11-21T14:03:05;9.10;99.90
19292;DHT22;9779;51.756;7.450;2023-11-21T14:05:36;9.10;99.90
19292;DHT22;9779;51.756;7.450;2023-11-21T14:08:01;9.10;99.90
19292;DHT22;9779;51.756;7.450;2023-11-21T14:10:31;9.10;99.90
19292;DHT22;9779;51.756;7.450;2023-11-21T14:13:08;9.10;99.90
19292;DHT22;9779;51.756;7.450;2023-11-21T14:15:36;9.10;99.90
19292;DHT22;9779;51.756;7.450;2023-11-21T14:18:07;9.10;99.90
19292;DHT22;9779;51.756;7.450;2023-11-21T14:20:36;9.00;99.90
19292;DHT22;9779;51.756;7.450;2023-11-21T14:23:03;9.00;99.90
19292;DHT22;9779;51.756;7.450;2023-11-21T14:25:31;8.90;99.90
19292;DHT22;9779;51.756;7.450;2023-11-21T14:27:58;8.90;99.90
19292;DHT22;9779;51.756;7.450;2023-11-21T14:30:24;8.90;99.90
19292;DHT22;9779;51.756;7.450;2023-11-21T14:32:50;8.90;99.90
19292;DHT22;9779;51.756;7.450;2023-11-21T14:35:16;8.90;99.90
19292;DHT22;9779;51.756;7.450;2023-11-21T14:37:43;8.90;99.90
19292;DHT22;9779;51.756;7.450;2023-11-21T14:40:09;8.80;99.90
19292;DHT22;9779;51.756;7.450;2023-11-21T14:42:35;8.80;99.90
19292;DHT22;9779;51.756;7.450;2023-11-21T14:45:03;8.80;99.90
19292;DHT22;9779;51.756;7.450;2023-11-21T14:47:32;8.80;99.90
19292;DHT22;9779;51.756;7.450;2023-11-21T14:50:02;8.70;99.90
19292;DHT22;9779;51.756;7.450;2023-11-21T14:52:48;8.70;99.90
19292;DHT22;9779;51.756;7.450;2023-11-21T14:55:24;8.60;99.90
19292;DHT22;9779;51.756;7.450;2023-11-21T14:58:19;8.60;99.90
19292;DHT22;9779;51.756;7.450;2023-11-21T15:00:58;8.50;99.90
19292;DHT22;9779;51.756;7.450;2023-11-21T15:03:29;8.50;99.90
19292;DHT22;9779;51.756;7.450;2023-11-21T15:06:02;8.50;99.90
19292;DHT22;9779;51.756;7.450;2023-11-21T15:09:03;8.50;99.90
19292;DHT22;9779;51.756;7.450;2023-11-21T15:11:35;8.40;99.90
19292;DHT22;9779;51.756;7.450;2023-11-21T15:14:03;8.40;99.90
19292;DHT22;9779;51.756;7.450;2023-11-21T15:16:33;8.50;99.90
19292;DHT22;9779;51.756;7.450;2023-11-21T15:18:58;8.40;99.90
19292;DHT22;9779;51.756;7.450;2023-11-21T15:21:25;8.40;99.90
19292;DHT22;9779;51.756;7.450;2023-11-21T15:23:51;8.30;99.90
19292;DHT22;9779;51.756;7.450;2023-11-21T15:26:17;8.30;99.90
19292;DHT22;9779;51.756;7.450;2023-11-21T15:28:42;8.30;99.90
19292;DHT22;9779;51.756;7.450;2023-11-21T15:31:08;8.20;99.90
19292;DHT22;9779;51.756;7.450;2023-11-21T15:33:34;8.10;99.90
19292;DHT22;9779;51.756;7.450;2023-11-21T15:36:02;8.20;99.90
19292;DHT22;9779;51.756;7.450;2023-11-21T15:38:29;8.10;99.90
19292;DHT22;9779;51.756;7.450;2023-11-21T15:40:55;8.10;99.90
19292;DHT22;9779;51.756;7.450;2023-11-21T15:43:20;8.00;99.90
19292;DHT22;9779;51.756;7.450;2023-11-21T15:45:46;8.10;99.90
19292;DHT22;9779;51.756;7.450;2023-11-21T15:48:12;8.10;99.90
19292;DHT22;9779;51.756;7.450;2023-11-21T15:50:37;8.00;99.90
19292;DHT22;9779;51.756;7.450;2023-11-21T15:53:03;8.00;99.90
19292;DHT22;9779;51.756;7.450;2023-11-21T15:55:30;8.10;99.90
19292;DHT22;9779;51.756;7.450;2023-11-21T15:57:56;8.00;99.90
19292;DHT22;9779;51.756;7.450;2023-11-21T16:00:21;8.00;99.90
19292;DHT22;9779;51.756;7.450;2023-11-21T16:02:49;8.00;99.90
19292;DHT22;9779;51.756;7.450;2023-11-21T16:05:15;7.90;99.90
19292;DHT22;9779;51.756;7.450;2023-11-21T16:07:42;7.90;99.90
19292;DHT22;9779;51.756;7.450;2023-11-21T16:10:10;7.90;99.90
19292;DHT22;9779;51.756;7.450;2023-11-21T16:12:40;7.80;99.90
19292;DHT22;9779;51.756;7.450;2023-11-21T16:15:06;7.90;99.90
19292;DHT22;9779;51.756;7.450;2023-11-21T16:17:35;7.80;99.90
19292;DHT22;9779;51.756;7.450;2023-11-21T16:20:05;7.80;99.90
19292;DHT22;9779;51.756;7.450;2023-11-21T16:22:39;7.80;99.90
19292;DHT22;9779;51.756;7.450;2023-11-21T16:25:06;7.80;99.90